Time;durP1;ratioP1;P1;durP2;ratioP2;P2;SDS_P1;SDS_P2;PMS_P1;PMS_P2;Temp;Humidity;BMP_temperature;BMP_pressure;BME280_temperature;BME280_humidity;BME280_pressure;Samples;Min_cycle;Max_cycle;Signal;HPM_P1;HPM_P2
2023/08/17 00:01:41;;;;;;;13.45;8.50;;;24.30;69.50;;;;;;4957858;28;20452;-91
2023/08/17 00:04:08;;;;;;;13.02;8.55;;;24.30;69.90;;;;;;4956458;28;20055;-91
2023/08/17 00:06:35;;;;;;;12.82;8.13;;;24.20;69.90;;;;;;4949907;28;20134;-90
2023/08/17 00:09:03;;;;;;;13.52;8.38;;;24.20;69.60;;;;;;4949509;28;20039;-91
2023/08/17 00:11:30;;;;;;;12.67;8.07;;;24.20;69.60;;;;;;4960558;28;20043;-91
2023/08/17 00:13:58;;;;;;;11.57;8.20;;;24.20;69.40;;;;;;4957438;28;20039;-90
2023/08/17 00:16:25;;;;;;;15.30;8.60;;;24.20;69.80;;;;;;4946648;28;20054;-91
2023/08/17 00:18:52;;;;;;;13.20;8.05;;;24.20;69.80;;;;;;4947398;28;20046;-90
2023/08/17 00:21:19;;;;;;;12.57;8.63;;;24.20;70.10;;;;;;4951188;28;20130;-90
2023/08/17 00:23:46;;;;;;;12.13;8.47;;;24.20;70.50;;;;;;4947955;28;20062;-91
2023/08/17 00:26:14;;;;;;;14.32;9.38;;;24.10;70.90;;;;;;4967597;28;20047;-91
2023/08/17 00:28:41;;;;;;;12.18;8.23;;;24.10;70.90;;;;;;4947399;28;20043;-91
2023/08/17 00:31:09;;;;;;;13.93;9.10;;;24.00;71.10;;;;;;4947921;28;20049;-91
2023/08/17 00:33:36;;;;;;;16.58;8.48;;;23.90;71.70;;;;;;4952057;28;20039;-91
2023/08/17 00:36:04;;;;;;;13.73;9.23;;;23.90;71.70;;;;;;4965654;28;20125;-90
2023/08/17 00:38:32;;;;;;;11.48;8.25;;;23.90;72.00;;;;;;4949816;28;20070;-90
2023/08/17 00:40:59;;;;;;;13.27;8.30;;;23.90;71.40;;;;;;4953103;28;20490;-91
2023/08/17 00:43:26;;;;;;;12.02;8.45;;;23.90;72.00;;;;;;4952556;28;20050;-91
2023/08/17 00:45:55;;;;;;;14.27;8.57;;;23.90;71.90;;;;;;4948591;28;20416;-91
2023/08/17 00:48:24;;;;;;;12.97;8.47;;;23.90;71.60;;;;;;4967957;28;20042;-91
2023/08/17 00:50:53;;;;;;;13.05;8.38;;;23.90;71.60;;;;;;4951965;28;20134;-90
2023/08/17 00:53:21;;;;;;;13.32;8.00;;;23.90;71.90;;;;;;4950940;28;20129;-91
2023/08/17 00:55:52;;;;;;;12.18;7.78;;;23.90;72.00;;;;;;4966945;28;20039;-91
2023/08/17 00:58:21;;;;;;;13.40;8.27;;;23.90;71.60;;;;;;4951925;28;20053;-91
2023/08/17 01:00:48;;;;;;;12.97;8.47;;;23.90;71.90;;;;;;4962685;28;20057;-92
2023/08/17 01:03:16;;;;;;;12.10;7.90;;;23.90;71.30;;;;;;4953878;28;20047;-91
2023/08/17 01:05:44;;;;;;;11.88;7.97;;;23.90;71.20;;;;;;4949590;28;20062;-91
2023/08/17 01:08:11;;;;;;;10.95;7.40;;;23.90;71.50;;;;;;4967530;28;20077;-91
2023/08/17 01:10:52;;;;;;;13.38;7.80;;;23.80;72.10;;;;;;4948087;28;20130;-91
2023/08/17 01:13:27;;;;;;;11.67;8.40;;;23.90;71.60;;;;;;4961465;28;20089;-92
2023/08/17 01:15:57;;;;;;;11.90;8.00;;;23.90;71.80;;;;;;4956154;28;20130;-92
2023/08/17 01:18:31;;;;;;;13.15;8.13;;;23.90;71.80;;;;;;4959314;28;20047;-91
2023/08/17 01:21:02;;;;;;;12.02;7.47;;;23.80;71.70;;;;;;4965269;28;20417;-91
2023/08/17 01:23:29;;;;;;;12.63;8.10;;;23.80;71.60;;;;;;4967559;28;20433;-91
2023/08/17 01:25:57;;;;;;;11.67;7.37;;;23.80;71.60;;;;;;4953533;28;20207;-91
2023/08/17 01:28:25;;;;;;;12.75;8.18;;;23.80;72.00;;;;;;4952352;28;20102;-91
2023/08/17 01:31:00;;;;;;;11.65;7.72;;;23.80;72.20;;;;;;4961128;28;20050;-91
2023/08/17 01:33:40;;;;;;;11.57;8.10;;;23.70;71.90;;;;;;4958110;28;20043;-91
2023/08/17 01:36:25;;;;;;;13.48;8.10;;;23.70;72.40;;;;;;4956194;28;20070;-92
2023/08/17 01:38:55;;;;;;;11.97;8.07;;;23.60;72.60;;;;;;4960658;28;20053;-92
2023/08/17 01:41:25;;;;;;;13.57;7.97;;;23.50;73.00;;;;;;4963410;28;20077;-92
2023/08/17 01:43:53;;;;;;;11.45;7.50;;;23.50;72.80;;;;;;4955837;28;20053;-92
2023/08/17 01:46:21;;;;;;;11.60;7.72;;;23.50;73.10;;;;;;4974366;28;20047;-92
2023/08/17 01:48:48;;;;;;;13.32;8.75;;;23.50;72.80;;;;;;4954014;28;20049;-91
2023/08/17 01:51:22;;;;;;;12.67;8.03;;;23.50;73.40;;;;;;4954050;28;20042;-92
2023/08/17 01:53:49;;;;;;;12.27;8.05;;;23.50;73.10;;;;;;4967060;28;20500;-92
2023/08/17 01:56:16;;;;;;;11.75;8.70;;;23.50;73.50;;;;;;4956688;28;20492;-93
2023/08/17 01:58:44;;;;;;;12.68;9.13;;;23.50;73.20;;;;;;4964334;28;20055;-92
2023/08/17 02:01:11;;;;;;;11.95;8.77;;;23.40;72.60;;;;;;4975495;28;20113;-93
2023/08/17 02:03:38;;;;;;;11.47;9.07;;;23.40;73.00;;;;;;4947819;28;20055;-93
2023/08/17 02:06:06;;;;;;;14.43;9.35;;;23.40;73.60;;;;;;4947353;28;20051;-92
2023/08/17 02:08:34;;;;;;;13.85;9.25;;;23.30;73.50;;;;;;4962160;28;20383;-90
2023/08/17 02:11:01;;;;;;;17.08;8.95;;;23.30;73.20;;;;;;4945768;28;20054;-92
2023/08/17 02:13:29;;;;;;;13.70;9.60;;;23.30;73.50;;;;;;4958889;28;20038;-93
2023/08/17 02:16:02;;;;;;;13.13;8.87;;;23.30;74.10;;;;;;4958116;28;20047;-92
2023/08/17 02:18:31;;;;;;;14.23;9.20;;;23.30;73.60;;;;;;4961540;28;20130;-92
2023/08/17 02:20:58;;;;;;;12.95;9.23;;;23.30;73.60;;;;;;4963819;28;20141;-93
2023/08/17 02:23:25;;;;;;;14.05;9.65;;;23.30;73.40;;;;;;4976895;28;20054;-92
2023/08/17 02:25:52;;;;;;;14.07;9.93;;;23.20;73.00;;;;;;4960297;28;20046;-92
2023/08/17 02:28:21;;;;;;;12.93;9.67;;;23.20;73.20;;;;;;4957223;29;20044;-92
2023/08/17 02:30:49;;;;;;;12.60;8.27;;;23.10;73.50;;;;;;4951130;28;20082;-91
2023/08/17 02:33:16;;;;;;;15.45;8.98;;;23.10;73.60;;;;;;4960266;28;20043;-92
2023/08/17 02:35:47;;;;;;;14.00;8.65;;;23.10;73.90;;;;;;4944553;28;20047;-92
2023/08/17 02:38:14;;;;;;;13.07;8.38;;;23.00;74.40;;;;;;4944459;28;20046;-92
2023/08/17 02:40:41;;;;;;;12.20;8.63;;;22.90;74.00;;;;;;4960148;28;20043;-92
2023/08/17 02:43:08;;;;;;;13.82;8.32;;;22.90;73.90;;;;;;4960389;28;20039;-92
2023/08/17 02:45:35;;;;;;;13.50;8.40;;;22.90;74.10;;;;;;4956505;29;20098;-92
2023/08/17 02:48:03;;;;;;;10.50;7.20;;;22.90;73.90;;;;;;4940892;29;20103;-93
2023/08/17 02:50:30;;;;;;;12.07;7.78;;;22.80;73.60;;;;;;4941169;29;20047;-93
2023/08/17 02:52:57;;;;;;;12.63;8.00;;;22.80;73.70;;;;;;4941064;29;20039;-93
2023/08/17 02:55:24;;;;;;;14.07;8.77;;;22.90;74.20;;;;;;4940893;29;20102;-93
2023/08/17 02:57:52;;;;;;;13.10;8.38;;;22.90;74.90;;;;;;4940820;29;20047;-93
2023/08/17 03:00:19;;;;;;;12.90;8.63;;;22.90;74.90;;;;;;4940933;29;20047;-93
2023/08/17 03:02:46;;;;;;;12.43;8.13;;;22.90;74.60;;;;;;4955081;28;20051;-93
2023/08/17 03:05:13;;;;;;;11.10;8.57;;;23.00;74.00;;;;;;4960071;28;20154;-92
2023/08/17 03:07:40;;;;;;;12.48;7.72;;;23.00;74.20;;;;;;4975757;28;20053;-93
2023/08/17 03:10:08;;;;;;;17.90;9.05;;;23.00;74.10;;;;;;4959554;28;20074;-92
2023/08/17 03:12:36;;;;;;;12.50;7.72;;;23.00;74.60;;;;;;4958574;28;20054;-93
2023/08/17 03:15:06;;;;;;;13.27;7.88;;;23.00;74.70;;;;;;4956473;29;20386;-92
2023/08/17 03:17:34;;;;;;;12.40;7.90;;;23.00;74.70;;;;;;4941334;29;20405;-92
2023/08/17 03:20:06;;;;;;;12.80;7.90;;;23.00;74.70;;;;;;4956435;29;20138;-94
2023/08/17 03:22:34;;;;;;;13.40;8.63;;;23.00;75.00;;;;;;4941013;29;20051;-93
2023/08/17 03:25:02;;;;;;;14.20;8.50;;;22.90;75.10;;;;;;4940020;29;20047;-93
2023/08/17 03:27:30;;;;;;;13.13;8.68;;;22.90;74.90;;;;;;4940110;29;20054;-93
2023/08/17 03:29:57;;;;;;;12.33;8.53;;;23.00;75.00;;;;;;4940280;29;20465;-95
2023/08/17 03:32:24;;;;;;;13.88;8.88;;;22.90;74.90;;;;;;4939951;29;20074;-94
2023/08/17 03:34:52;;;;;;;13.35;8.68;;;23.00;75.10;;;;;;4940371;29;20485;-93
2023/08/17 03:37:19;;;;;;;13.25;8.60;;;23.00;75.00;;;;;;4944889;28;20069;-89
2023/08/17 03:39:46;;;;;;;12.93;8.25;;;23.00;75.20;;;;;;4955697;28;20382;-89
2023/08/17 03:42:13;;;;;;;14.17;8.60;;;23.00;75.20;;;;;;4966662;28;20114;-89
2023/08/17 03:44:40;;;;;;;13.63;9.10;;;23.00;75.30;;;;;;4951432;28;20137;-89
2023/08/17 03:47:07;;;;;;;11.93;8.80;;;23.00;75.20;;;;;;4952364;28;20054;-90
2023/08/17 03:49:34;;;;;;;13.70;8.77;;;23.00;75.10;;;;;;4955258;29;20097;-90
2023/08/17 03:52:01;;;;;;;14.15;9.05;;;23.00;74.80;;;;;;4957247;28;20074;-89
2023/08/17 03:54:28;;;;;;;11.30;8.77;;;23.00;74.60;;;;;;4958064;28;20560;-88
2023/08/17 03:56:55;;;;;;;12.90;8.23;;;23.00;74.50;;;;;;4965234;28;20047;-93
2023/08/17 03:59:22;;;;;;;12.55;8.88;;;23.00;74.20;;;;;;4949155;29;20055;-90
2023/08/17 04:01:50;;;;;;;15.93;9.07;;;23.00;74.30;;;;;;4940736;29;20054;-87
2023/08/17 04:04:17;;;;;;;12.48;8.80;;;23.00;74.40;;;;;;4950778;28;20054;-87
2023/08/17 04:06:44;;;;;;;12.97;8.87;;;23.00;74.60;;;;;;4967286;28;20117;-87
2023/08/17 04:09:12;;;;;;;12.82;8.57;;;23.00;75.10;;;;;;4945225;28;20039;-87
2023/08/17 04:11:39;;;;;;;11.55;8.32;;;23.00;74.80;;;;;;4949754;28;20047;-87
2023/08/17 04:14:08;;;;;;;12.70;7.93;;;23.00;74.80;;;;;;4954370;29;20070;-87
2023/08/17 04:16:35;;;;;;;14.15;8.23;;;23.00;74.80;;;;;;4949619;28;20047;-88
2023/08/17 04:19:03;;;;;;;14.77;8.03;;;23.00;75.10;;;;;;4957730;28;20073;-87
2023/08/17 04:21:30;;;;;;;13.05;8.02;;;23.00;75.20;;;;;;4957560;28;20046;-87
2023/08/17 04:23:57;;;;;;;13.88;8.07;;;23.00;75.20;;;;;;4957884;28;20497;-87
2023/08/17 04:26:24;;;;;;;14.73;8.57;;;23.00;75.30;;;;;;4955107;28;20524;-91
2023/08/17 04:28:52;;;;;;;12.95;8.25;;;23.00;75.60;;;;;;4939049;29;20043;-91
2023/08/17 04:31:19;;;;;;;12.63;8.10;;;22.90;75.80;;;;;;4955157;28;20048;-91
2023/08/17 04:33:54;;;;;;;12.60;7.65;;;22.90;75.70;;;;;;4955223;28;20112;-90
2023/08/17 04:36:21;;;;;;;11.75;7.95;;;22.90;75.80;;;;;;4957049;28;20039;-90
2023/08/17 04:38:48;;;;;;;13.43;8.30;;;23.00;75.80;;;;;;4961852;28;20058;-90
2023/08/17 04:41:16;;;;;;;12.98;8.38;;;23.00;75.80;;;;;;4968072;28;20590;-90
2023/08/17 04:43:46;;;;;;;13.33;8.40;;;23.00;75.60;;;;;;4965230;28;20047;-91
2023/08/17 04:46:13;;;;;;;15.40;8.77;;;23.00;75.50;;;;;;4950343;28;20063;-90
2023/08/17 04:48:41;;;;;;;12.88;7.72;;;23.00;75.50;;;;;;4960005;28;20047;-90
2023/08/17 04:51:08;;;;;;;11.65;8.02;;;23.00;75.50;;;;;;4943002;29;20039;-90
2023/08/17 04:53:35;;;;;;;37.72;9.10;;;23.10;75.30;;;;;;4942695;29;20071;-90
2023/08/17 04:56:03;;;;;;;12.93;8.03;;;23.10;75.60;;;;;;4958486;29;20047;-90
2023/08/17 04:58:31;;;;;;;14.52;8.93;;;23.10;75.60;;;;;;4942755;29;20039;-90
2023/08/17 05:00:59;;;;;;;13.02;9.18;;;23.00;75.70;;;;;;4949038;28;20051;-90
2023/08/17 05:03:26;;;;;;;13.43;8.55;;;23.00;75.70;;;;;;4958358;29;20047;-91
2023/08/17 05:06:00;;;;;;;14.10;8.43;;;23.00;75.80;;;;;;4943437;29;20043;-93
2023/08/17 05:08:31;;;;;;;15.63;9.03;;;23.10;75.60;;;;;;4943496;29;20134;-93
2023/08/17 05:10:58;;;;;;;13.80;8.57;;;23.10;75.70;;;;;;4958438;29;20047;-91
2023/08/17 05:13:26;;;;;;;13.15;8.63;;;23.10;75.70;;;;;;4942290;29;20098;-92
2023/08/17 05:15:56;;;;;;;15.02;8.77;;;23.20;75.80;;;;;;4958016;29;20133;-91
2023/08/17 05:18:24;;;;;;;14.23;9.23;;;23.30;75.60;;;;;;4958203;29;20126;-91
2023/08/17 05:20:52;;;;;;;15.07;9.27;;;23.30;75.70;;;;;;4942711;29;20039;-92
2023/08/17 05:23:19;;;;;;;14.63;8.75;;;23.30;75.80;;;;;;4942829;29;20091;-92
2023/08/17 05:25:47;;;;;;;15.82;8.77;;;23.40;75.70;;;;;;4942153;29;20134;-92
2023/08/17 05:28:14;;;;;;;15.45;9.50;;;23.40;75.60;;;;;;4942567;29;20498;-90
2023/08/17 05:30:42;;;;;;;14.13;9.32;;;23.50;75.40;;;;;;4941962;29;20598;-93
2023/08/17 05:33:09;;;;;;;14.77;8.53;;;23.50;75.80;;;;;;4942145;29;20055;-91
2023/08/17 05:35:36;;;;;;;16.75;9.40;;;23.50;75.40;;;;;;4942026;29;20535;-90
2023/08/17 05:38:05;;;;;;;14.45;8.98;;;23.60;74.60;;;;;;4941872;29;20041;-90
2023/08/17 05:40:33;;;;;;;15.10;8.95;;;23.80;73.00;;;;;;4941815;29;20147;-90
2023/08/17 05:43:00;;;;;;;13.65;7.65;;;24.00;72.80;;;;;;4941512;29;20047;-90
2023/08/17 05:45:27;;;;;;;10.63;6.50;;;24.10;71.70;;;;;;4941983;29;20062;-90
2023/08/17 05:47:54;;;;;;;11.55;6.47;;;24.10;70.40;;;;;;4940852;29;20047;-91
2023/08/17 05:50:21;;;;;;;10.52;6.70;;;24.10;69.20;;;;;;4941619;29;20417;-91
2023/08/17 05:52:48;;;;;;;11.77;6.85;;;24.10;69.80;;;;;;4957368;29;20051;-91
2023/08/17 05:55:15;;;;;;;10.70;6.07;;;24.10;69.10;;;;;;4941648;29;20115;-90
2023/08/17 05:57:42;;;;;;;11.37;6.80;;;24.10;68.80;;;;;;4957605;29;20051;-90
2023/08/17 06:00:12;;;;;;;10.07;5.95;;;24.10;68.70;;;;;;4941194;29;20039;-91
2023/08/17 06:02:42;;;;;;;12.20;7.10;;;24.10;68.90;;;;;;4941739;29;20069;-91
2023/08/17 06:05:09;;;;;;;12.90;7.82;;;24.00;69.40;;;;;;4941277;29;20109;-91
2023/08/17 06:07:36;;;;;;;15.27;8.80;;;24.00;70.00;;;;;;4941113;29;20044;-91
2023/08/17 06:10:06;;;;;;;12.43;8.33;;;24.00;70.50;;;;;;4941336;29;20047;-91
2023/08/17 06:12:33;;;;;;;17.95;8.38;;;24.00;71.00;;;;;;4941754;29;20043;-90
2023/08/17 06:15:02;;;;;;;13.98;8.02;;;24.10;70.90;;;;;;4956859;29;20054;-89
2023/08/17 06:17:30;;;;;;;14.95;9.65;;;24.10;70.90;;;;;;4941008;29;20461;-91
2023/08/17 06:19:57;;;;;;;14.20;9.30;;;24.10;71.00;;;;;;4941505;29;20479;-91
2023/08/17 06:22:24;;;;;;;13.90;9.03;;;24.10;70.50;;;;;;4940994;29;20059;-91
2023/08/17 06:24:51;;;;;;;13.93;8.90;;;24.20;70.30;;;;;;4940986;29;20061;-90
2023/08/17 06:27:19;;;;;;;14.45;9.52;;;24.40;69.70;;;;;;4957103;29;20054;-90
2023/08/17 06:29:46;;;;;;;14.25;9.23;;;24.40;69.60;;;;;;4940903;29;20476;-90
2023/08/17 06:32:13;;;;;;;14.10;8.93;;;24.40;69.50;;;;;;4956583;29;20053;-90
2023/08/17 06:34:40;;;;;;;13.13;8.97;;;24.50;69.90;;;;;;4940835;29;20047;-90
2023/08/17 06:37:07;;;;;;;14.60;8.63;;;24.60;69.80;;;;;;4956727;29;20051;-91
2023/08/17 06:39:34;;;;;;;15.18;8.77;;;24.60;70.10;;;;;;4940707;29;20145;-90
2023/08/17 06:42:05;;;;;;;14.88;9.07;;;24.50;69.80;;;;;;4940629;29;20058;-91
2023/08/17 06:44:32;;;;;;;13.80;9.07;;;24.60;69.60;;;;;;4956651;29;20142;-91
2023/08/17 06:46:59;;;;;;;20.80;8.33;;;24.80;69.60;;;;;;4940497;29;20070;-90
2023/08/17 06:49:26;;;;;;;13.63;9.38;;;24.90;68.60;;;;;;4956569;29;20047;-90
2023/08/17 06:51:53;;;;;;;29.05;9.30;;;25.00;68.60;;;;;;4940237;29;20059;-91
2023/08/17 06:54:20;;;;;;;11.90;8.43;;;25.10;68.60;;;;;;4941597;29;20133;-91
2023/08/17 06:56:47;;;;;;;15.30;7.93;;;25.10;68.20;;;;;;4940303;29;20043;-91
2023/08/17 06:59:15;;;;;;;13.47;9.60;;;25.40;68.30;;;;;;4939425;29;20051;-91
2023/08/17 07:01:42;;;;;;;14.82;9.48;;;25.40;67.60;;;;;;4940303;29;20043;-90
2023/08/17 07:04:09;;;;;;;16.15;9.05;;;25.40;67.80;;;;;;4952647;29;20052;-90
2023/08/17 07:06:36;;;;;;;13.48;8.55;;;25.50;67.90;;;;;;4937077;29;20418;-91
2023/08/17 07:09:05;;;;;;;15.32;8.57;;;25.60;67.90;;;;;;4952952;29;20075;-90
2023/08/17 07:11:33;;;;;;;15.50;9.13;;;25.60;67.70;;;;;;4937248;29;20573;-91
2023/08/17 07:14:00;;;;;;;13.98;8.73;;;25.70;68.00;;;;;;4937002;29;20414;-91
2023/08/17 07:16:27;;;;;;;14.65;8.88;;;25.80;68.00;;;;;;4936880;29;20405;-91
2023/08/17 07:18:54;;;;;;;15.50;9.07;;;25.80;67.40;;;;;;4936779;29;20081;-91
2023/08/17 07:21:21;;;;;;;14.13;8.82;;;25.90;67.40;;;;;;4936456;29;20058;-90
2023/08/17 07:23:49;;;;;;;11.87;8.17;;;25.90;66.90;;;;;;4936647;29;20150;-91
2023/08/17 07:26:18;;;;;;;14.40;8.43;;;26.00;66.50;;;;;;4936677;29;20071;-91
2023/08/17 07:28:46;;;;;;;14.25;8.98;;;26.10;66.90;;;;;;4936617;29;20150;-91
2023/08/17 07:31:14;;;;;;;14.57;9.10;;;26.10;67.30;;;;;;4936598;29;20057;-91
2023/08/17 07:33:41;;;;;;;15.60;8.82;;;26.10;66.80;;;;;;4936290;29;20048;-91
2023/08/17 07:36:08;;;;;;;13.63;8.60;;;26.10;66.70;;;;;;4937117;29;20595;-91
2023/08/17 07:38:36;;;;;;;14.25;8.90;;;26.10;67.30;;;;;;4936272;29;20082;-91
2023/08/17 07:41:03;;;;;;;15.18;9.52;;;26.10;66.80;;;;;;4936385;29;20108;-92
2023/08/17 07:43:30;;;;;;;13.60;9.13;;;26.20;66.00;;;;;;4936465;29;20051;-91
2023/08/17 07:45:57;;;;;;;15.90;9.18;;;26.40;66.20;;;;;;4936541;29;20059;-90
2023/08/17 07:48:25;;;;;;;18.30;8.30;;;26.50;65.70;;;;;;4952280;29;20418;-91
2023/08/17 07:50:53;;;;;;;14.52;8.05;;;26.60;66.60;;;;;;4936407;29;20054;-91
2023/08/17 07:53:20;;;;;;;13.30;8.45;;;26.60;65.80;;;;;;4936189;29;20458;-90
2023/08/17 07:55:47;;;;;;;15.75;8.73;;;26.70;65.50;;;;;;4936412;29;20095;-91
2023/08/17 07:58:16;;;;;;;14.90;9.10;;;26.80;65.60;;;;;;4936233;29;20052;-91
2023/08/17 08:00:43;;;;;;;13.40;9.17;;;26.90;64.40;;;;;;4936460;29;20107;-90
2023/08/17 08:03:10;;;;;;;13.35;8.43;;;26.90;63.60;;;;;;4935843;29;20058;-91
2023/08/17 08:05:38;;;;;;;15.05;9.05;;;26.90;63.80;;;;;;4935848;29;20070;-91
2023/08/17 08:08:05;;;;;;;13.70;8.52;;;26.90;64.60;;;;;;4936009;29;20083;-91
2023/08/17 08:10:32;;;;;;;13.13;8.63;;;27.10;64.60;;;;;;4935822;29;20110;-91
2023/08/17 08:12:59;;;;;;;12.40;8.43;;;27.30;64.50;;;;;;4936187;29;20138;-91
2023/08/17 08:15:27;;;;;;;12.23;8.43;;;27.40;62.90;;;;;;4935822;29;20147;-91
2023/08/17 08:17:54;;;;;;;13.90;8.95;;;27.30;63.50;;;;;;4951943;29;20561;-91
2023/08/17 08:20:22;;;;;;;12.77;7.72;;;27.30;65.50;;;;;;4936042;29;20079;-91
2023/08/17 08:22:49;;;;;;;13.25;8.18;;;27.30;62.70;;;;;;4936043;29;20087;-91
2023/08/17 08:25:16;;;;;;;12.73;8.90;;;27.30;62.90;;;;;;4935596;29;20043;-91
2023/08/17 08:27:43;;;;;;;13.88;8.52;;;27.20;62.40;;;;;;4936195;29;20139;-91
2023/08/17 08:30:10;;;;;;;13.80;8.90;;;27.10;63.60;;;;;;4935972;29;20130;-91
2023/08/17 08:32:38;;;;;;;13.45;9.02;;;27.20;64.10;;;;;;4935766;29;20048;-91
2023/08/17 08:35:05;;;;;;;13.13;8.52;;;27.20;63.70;;;;;;4935835;29;20055;-91
2023/08/17 08:37:32;;;;;;;15.20;8.80;;;27.30;64.60;;;;;;4935666;29;20147;-91
2023/08/17 08:40:00;;;;;;;13.63;8.25;;;27.30;63.30;;;;;;4935967;29;20102;-92
2023/08/17 08:42:27;;;;;;;16.13;8.20;;;27.40;63.80;;;;;;4935876;29;20058;-92
2023/08/17 08:44:54;;;;;;;14.98;8.00;;;27.60;62.20;;;;;;4935820;29;20111;-89
2023/08/17 08:47:24;;;;;;;11.63;7.90;;;27.70;63.20;;;;;;4935655;29;20075;-91
2023/08/17 08:50:02;;;;;;;14.00;9.40;;;27.80;61.10;;;;;;4935928;29;20513;-92
2023/08/17 08:52:35;;;;;;;16.65;8.30;;;27.80;60.20;;;;;;4935939;29;20096;-91
2023/08/17 08:55:25;;;;;;;16.42;8.70;;;27.90;60.90;;;;;;4951716;29;20078;-91
2023/08/17 08:57:53;;;;;;;19.10;8.43;;;28.00;62.30;;;;;;4935307;29;20055;-92
2023/08/17 09:00:21;;;;;;;11.40;8.18;;;28.10;61.30;;;;;;4935807;29;20143;-91
2023/08/17 09:02:49;;;;;;;14.27;8.43;;;28.20;61.90;;;;;;4951555;29;20056;-91
2023/08/17 09:05:16;;;;;;;12.23;7.80;;;28.20;60.70;;;;;;4935586;29;20502;-91
2023/08/17 09:07:45;;;;;;;13.02;7.95;;;28.30;59.20;;;;;;4935693;29;20058;-91
2023/08/17 09:10:12;;;;;;;12.90;7.38;;;28.30;61.00;;;;;;4938299;29;20048;-91
2023/08/17 09:12:39;;;;;;;12.73;8.23;;;28.30;59.00;;;;;;4971040;28;20055;-91
2023/08/17 09:15:08;;;;;;;11.43;7.40;;;28.30;58.90;;;;;;4954498;29;20051;-91
2023/08/17 09:17:35;;;;;;;10.75;7.65;;;28.20;58.90;;;;;;4945610;28;20047;-91
2023/08/17 09:20:04;;;;;;;11.88;7.63;;;28.20;59.60;;;;;;4935346;29;20071;-90
2023/08/17 09:22:41;;;;;;;11.68;7.30;;;28.30;60.00;;;;;;4952039;28;20052;-91
2023/08/17 09:25:22;;;;;;;12.35;7.50;;;28.40;60.30;;;;;;4938944;29;20502;-91
2023/08/17 09:27:49;;;;;;;12.70;8.13;;;28.50;59.30;;;;;;4938869;29;20106;-91
2023/08/17 09:30:16;;;;;;;13.30;7.57;;;28.30;58.00;;;;;;4938799;29;20047;-92
2023/08/17 09:32:47;;;;;;;13.73;7.60;;;28.20;58.50;;;;;;4938838;29;20512;-91
2023/08/17 09:35:15;;;;;;;12.90;8.13;;;28.30;59.10;;;;;;4938650;29;20498;-91
2023/08/17 09:37:42;;;;;;;11.88;8.02;;;28.40;59.80;;;;;;4954917;29;20075;-91
2023/08/17 09:40:09;;;;;;;10.93;7.40;;;28.50;60.10;;;;;;4938914;29;20075;-91
2023/08/17 09:42:38;;;;;;;13.55;8.35;;;28.60;61.20;;;;;;4938536;29;20048;-92
2023/08/17 09:45:06;;;;;;;12.38;7.50;;;28.70;59.20;;;;;;4938568;29;20098;-91
2023/08/17 09:47:34;;;;;;;12.52;7.43;;;28.80;59.20;;;;;;4938151;29;20502;-91
2023/08/17 09:50:06;;;;;;;15.88;7.57;;;28.90;59.80;;;;;;4938338;29;20058;-91
2023/08/17 09:52:33;;;;;;;11.10;7.90;;;29.00;59.80;;;;;;4954241;29;20075;-90
2023/08/17 09:55:03;;;;;;;11.20;8.15;;;29.10;58.40;;;;;;4938175;29;20047;-91
2023/08/17 09:57:36;;;;;;;13.02;7.82;;;29.00;58.70;;;;;;4938832;29;20107;-91
2023/08/17 10:00:06;;;;;;;12.05;6.90;;;29.00;59.00;;;;;;4938206;29;20142;-91
2023/08/17 10:02:34;;;;;;;10.73;6.32;;;29.10;57.90;;;;;;4938587;29;20089;-91
2023/08/17 10:05:04;;;;;;;12.03;8.20;;;29.10;53.80;;;;;;4938091;29;20047;-91
2023/08/17 10:07:34;;;;;;;11.57;6.35;;;29.10;55.70;;;;;;4938211;29;20048;-91
2023/08/17 10:10:04;;;;;;;10.02;5.65;;;29.20;54.70;;;;;;4938028;29;20043;-91
2023/08/17 10:12:48;;;;;;;9.32;5.55;;;29.20;52.70;;;;;;4937941;29;20044;-91
2023/08/17 10:15:19;;;;;;;11.32;5.60;;;29.20;52.30;;;;;;4952059;29;20051;-91
2023/08/17 10:17:59;;;;;;;8.97;5.50;;;29.10;51.90;;;;;;4957067;28;20527;-91
2023/08/17 10:20:30;;;;;;;11.57;5.60;;;29.10;51.90;;;;;;4957213;29;20051;-91
2023/08/17 10:23:17;;;;;;;10.82;6.22;;;29.30;53.20;;;;;;4956984;28;20057;-91
2023/08/17 10:25:47;;;;;;;10.00;6.28;;;29.40;53.50;;;;;;4957123;28;20051;-92
2023/08/17 10:28:18;;;;;;;13.55;6.55;;;29.60;51.50;;;;;;4957272;28;20093;-91
2023/08/17 10:30:45;;;;;;;11.37;6.07;;;29.60;52.80;;;;;;4956856;28;20138;-92
2023/08/17 10:33:12;;;;;;;9.20;5.72;;;29.60;52.90;;;;;;4956498;28;20086;-91
2023/08/17 10:35:40;;;;;;;10.40;6.00;;;29.60;53.50;;;;;;4957037;28;20054;-91
2023/08/17 10:38:08;;;;;;;12.68;6.57;;;29.70;54.50;;;;;;4956669;29;20059;-91
2023/08/17 10:40:41;;;;;;;9.98;6.40;;;29.80;54.00;;;;;;4972589;28;20497;-91
2023/08/17 10:43:08;;;;;;;9.63;5.87;;;30.00;54.80;;;;;;4956493;29;20531;-91
2023/08/17 10:45:38;;;;;;;9.85;5.72;;;30.10;52.80;;;;;;4956713;28;20058;-92
2023/08/17 10:48:05;;;;;;;9.95;5.65;;;30.10;52.40;;;;;;4956692;29;20055;-92
2023/08/17 10:50:33;;;;;;;10.25;5.90;;;30.00;52.90;;;;;;4956559;28;20390;-91
2023/08/17 10:53:12;;;;;;;10.80;5.75;;;29.80;54.40;;;;;;4972760;28;20142;-92
2023/08/17 10:55:49;;;;;;;9.37;5.53;;;29.60;53.10;;;;;;4956242;29;20097;-91
2023/08/17 10:58:18;;;;;;;9.45;5.68;;;29.30;53.40;;;;;;4957075;28;20046;-92
2023/08/17 11:00:46;;;;;;;8.70;5.57;;;29.10;55.30;;;;;;4956377;29;20094;-92
2023/08/17 11:03:21;;;;;;;10.43;5.72;;;29.00;55.70;;;;;;4956330;28;20073;-91
2023/08/17 11:05:55;;;;;;;11.43;6.28;;;28.90;55.30;;;;;;4956003;29;20059;-91
2023/08/17 11:08:42;;;;;;;111.40;11.40;;;28.70;55.60;;;;;;4956310;29;20074;-91
2023/08/17 11:11:15;;;;;;;27.88;5.97;;;28.60;56.90;;;;;;4956250;28;20505;-93
2023/08/17 11:13:45;;;;;;;12.02;4.43;;;27.80;58.20;;;;;;4956419;29;20055;-92
2023/08/17 11:16:14;;;;;;;10.48;3.97;;;26.10;63.70;;;;;;4972119;28;20138;-92
2023/08/17 11:18:49;;;;;;;12.60;4.15;;;24.90;67.80;;;;;;4956790;28;20075;-92
2023/08/17 11:21:19;;;;;;;14.57;6.87;;;24.10;71.20;;;;;;4972503;28;20082;-92
2023/08/17 11:23:47;;;;;;;23.48;7.20;;;23.50;73.50;;;;;;4956484;28;20051;-93
2023/08/17 11:26:19;;;;;;;9.60;3.90;;;23.10;71.70;;;;;;4956459;29;20047;-92
2023/08/17 11:28:47;;;;;;;11.18;4.30;;;23.20;66.30;;;;;;4956559;29;20050;-93
2023/08/17 11:31:15;;;;;;;11.63;4.53;;;23.40;70.00;;;;;;4956025;28;20068;-94
2023/08/17 11:33:44;;;;;;;11.70;5.27;;;23.50;72.50;;;;;;4972024;28;20137;-93
2023/08/17 11:36:12;;;;;;;9.55;4.85;;;23.60;73.40;;;;;;4955980;29;20130;-94
2023/08/17 11:38:41;;;;;;;15.05;6.28;;;23.60;73.00;;;;;;4955861;29;20043;-94
2023/08/17 11:41:09;;;;;;;11.57;6.55;;;23.70;74.30;;;;;;4956250;29;20474;-94
2023/08/17 11:43:44;;;;;;;15.23;7.10;;;23.60;74.10;;;;;;4957090;28;20085;-94
2023/08/17 11:46:12;;;;;;;26.57;10.10;;;23.20;73.50;;;;;;4955254;28;20504;-94
2023/08/17 11:48:39;;;;;;;15.45;6.65;;;23.10;74.40;;;;;;4971538;28;20098;-94
2023/08/17 11:51:06;;;;;;;12.80;4.95;;;22.90;75.00;;;;;;4955474;29;20050;-93
2023/08/17 11:53:41;;;;;;;9.25;4.10;;;22.80;75.00;;;;;;4955707;29;20501;-95
2023/08/17 11:56:08;;;;;;;11.23;4.57;;;22.60;75.10;;;;;;4971921;28;20118;-93
2023/08/17 11:58:41;;;;;;;9.10;4.13;;;22.30;76.30;;;;;;4955522;29;20047;-94
2023/08/17 12:01:34;;;;;;;9.98;3.70;;;22.10;75.80;;;;;;4956113;29;20053;-94
2023/08/17 12:04:05;;;;;;;10.23;3.35;;;22.00;76.50;;;;;;4957620;28;20119;-96
2023/08/17 12:10:38;;;;;;;8.45;3.63;;;21.70;75.80;;;;;;4965105;29;20050;-96
2023/08/17 12:13:06;;;;;;;8.20;3.30;;;21.50;76.90;;;;;;4979413;28;20070;-96
2023/08/17 12:15:35;;;;;;;9.65;3.13;;;21.50;77.00;;;;;;4959905;29;20047;-96
2023/08/17 12:18:05;;;;;;;7.20;3.47;;;21.60;77.10;;;;;;4975547;28;20068;-96
2023/08/17 12:20:36;;;;;;;8.30;3.08;;;21.60;76.80;;;;;;4973681;28;20115;-96
2023/08/17 12:23:08;;;;;;;7.65;3.20;;;21.50;76.40;;;;;;4961981;28;20047;-96
2023/08/17 12:25:36;;;;;;;8.47;3.27;;;21.50;77.00;;;;;;4976025;28;20493;-96
2023/08/17 12:28:04;;;;;;;7.45;2.85;;;21.50;77.40;;;;;;4962451;28;20073;-96
2023/08/17 12:30:37;;;;;;;6.93;3.08;;;21.30;77.60;;;;;;4965366;28;20568;-96
2023/08/17 12:33:05;;;;;;;7.20;3.10;;;21.30;78.40;;;;;;4975896;28;20497;-91
2023/08/17 12:35:32;;;;;;;10.75;4.07;;;21.40;78.40;;;;;;4941887;29;20044;-91
2023/08/17 12:37:59;;;;;;;7.23;3.27;;;21.40;79.50;;;;;;4955337;29;20051;-93
2023/08/17 12:40:26;;;;;;;8.48;3.42;;;21.40;79.80;;;;;;4955318;29;20040;-92
2023/08/17 12:42:53;;;;;;;10.68;4.43;;;21.40;79.90;;;;;;4955583;28;20051;-93
2023/08/17 12:45:20;;;;;;;11.80;4.53;;;21.30;80.60;;;;;;4955847;29;20044;-92
2023/08/17 12:48:06;;;;;;;9.80;3.90;;;21.30;80.90;;;;;;4955907;29;20141;-91
2023/08/17 12:50:34;;;;;;;7.97;3.50;;;21.30;80.70;;;;;;4974853;28;20067;-91